• Join FlightAware (Why Join?)
  • Login
  • US Flag 
05:16AM EST


 

Airport Tracker/Info


-or-


 

Live Flight TrackerFlight Track Log ✈ FLG3861 ✈ 30-Mar-2014 ✈ KDTW - KBGM

Flight Track Log - Related Links

Times and Time Zones

All times are in EDT time to prevent confusion due to time zone crossing. See the FLG3861 flight status page for this flight to view local times or setup timezone preferences in your user account.

Time Position Orientation Groundspeed Altitude Reporting Facility
EDT Latitude Longitude Course Direction KTS MPH feet Rate Location/Type
09:51PM 42.1942 -83.3597 90° East 164 189 1,800  Level Cleveland Center
09:53PM 42.1381 -83.3519 174° South 212 244 4,000 1,740 Climbing Cleveland Center
09:53PM 42.1350 -83.3525 188° South 192 221 4,100 1,920 Climbing Cleveland Center
09:54PM 42.1061 -83.2786 118° Southeast 245 282 6,500 2,520 Climbing Cleveland Center
09:55PM 42.1422 -83.1814 63° Northeast 261 300 9,300 2,280 Climbing Cleveland Center
09:56PM 42.1736 -83.0833 67° East 283 326 11,200 1,380 Climbing Cleveland Center
09:57PM 42.3500 -82.5006 90° East  Level FlightAware Approximate
09:57PM 42.2089 -82.9686 67° East 330 380 12,200  Level Cleveland Center
09:58PM 42.2489 -82.8428 67° East 361 415 13,400 1,140 Climbing Cleveland Center
09:59PM 42.2906 -82.7094 67° East 383 441 14,600 1,140 Climbing Cleveland Center
10:00PM 42.3336 -82.5694 67° East 400 460 15,800 1,260 Climbing Cleveland Center
10:01PM 42.3669 -82.3928 76° East 415 478 17,300 1,140 Climbing Cleveland Center
10:02PM 42.3608 -82.2339 93° East 421 484 18,200 900 Climbing Cleveland Center
10:03PM 42.3536 -82.0747 93° East 426 490 19,200 1,020 Climbing Cleveland Center
10:04PM 42.3464 -81.9103 93° East 430 495 20,300 1,020 Climbing Cleveland Center
10:05PM 42.3386 -81.7467 94° East 430 495 21,300 1,020 Climbing Cleveland Center
10:06PM 42.3319 -81.5844 93° East 430 495 22,400 1,020 Climbing Cleveland Center
10:07PM 42.3231 -81.4206 94° East 431 496 23,400 960 Climbing Cleveland Center
10:08PM 42.3147 -81.2569 94° East 431 496 24,400 960 Climbing Cleveland Center
10:09PM 42.3064 -81.0933 94° East 431 496 25,400 1,020 Climbing Cleveland Center
10:11PM 42.2878 -80.7383 95° East 434 499 27,600 840 Climbing Cleveland Center
10:12PM 42.2792 -80.5753 94° East 430 495 28,000 180 Climbing Cleveland Center
10:13PM 42.2694 -80.4047 94° East 448 516 28,000  Level Cleveland Center
10:14PM 42.2603 -80.2297 94° East 457 526 28,000  Level Cleveland Center
10:15PM 42.2492 -80.0575 95° East 458 527 28,000  Level Cleveland Center
10:16PM 42.2400 -79.9072 95° East 437 503 28,000  Level Cleveland Center
10:17PM 42.2292 -79.7447 95° East 436 502 28,000 -300 Level Cleveland Center
10:18PM 42.2169 -79.5567 95° East 423 487 27,400 -840 Descending Cleveland Center
10:19PM 42.2069 -79.3972 95° East 424 488 26,400 -1,020 Descending Cleveland Center
10:20PM 42.1967 -79.2397 95° East 424 488 25,400 -1,020 Descending Cleveland Center
10:21PM 42.1878 -79.0847 94° East 421 484 24,400 -1,020 Descending Cleveland Center
10:23PM 42.1919 -78.9286 88° East 418 481 23,400 -720 Descending Cleveland Center
10:24PM 42.1958 -78.7778 88° East 414 476 23,000 -240 Descending Cleveland Center
10:25PM 42.1972 -78.6206 89° East 416 479 23,000  Level Cleveland Center
10:26PM 42.2011 -78.4317 88° East 419 482 23,000  Level Cleveland Center
10:27PM 42.2025 -78.2742 89° East 422 486 23,000 -360 Level Cleveland Center
10:28PM 42.2039 -78.1172 89° East 422 486 22,300 -1,080 Descending Cleveland Center
10:29PM 42.2050 -77.9625 89° East 422 486 20,800 -1,500 Descending Cleveland Center
10:30PM 42.2056 -77.8156 90° East 404 465 19,300 -1,500 Descending Cleveland Center
10:31PM 42.2075 -77.6703 89° East 398 458 17,800 -1,140 Descending Cleveland Center
10:32PM 42.2072 -77.5253 90° East 395 455 17,100 -420 Descending Cleveland Center
10:33PM 42.2089 -77.3567 89° East 383 441 17,000 -60 Descending Cleveland Center
10:34PM 42.2094 -77.2167 90° East 378 435 17,000 -300 Level Cleveland Center
10:35PM 42.2100 -77.0775 90° East 378 435 16,400 -1,080 Descending Cleveland Center
10:36PM 42.2097 -76.9439 90° East 362 417 14,800 -1,560 Descending Cleveland Center
10:37PM 42.2097 -76.8203 90° East 338 389 13,300 -1,500 Descending Cleveland Center
10:38PM 42.2067 -76.6997 92° East 325 374 11,800 -1,320 Descending Cleveland Center
10:39PM 42.1719 -76.5886 113° Southeast 321 369 10,700 -1,320 Descending Cleveland Center
10:40PM 42.1406 -76.4736 110° East 278 320 9,200 -1,560 Descending Cleveland Center
10:41PM 42.1111 -76.3803 113° Southeast 271 312 7,600 -1,560 Descending Cleveland Center
10:42PM 42.0825 -76.2894 113° Southeast 270 311 6,100 -1,260 Descending Cleveland Center
10:43PM 42.0533 -76.2022 114° Southeast 262 302 5,100 -540 Descending Cleveland Center
10:44PM 42.0267 -76.1169 113° Southeast 253 291 5,100 -60 Level Cleveland Center
10:45PM 41.9947 -76.0169 113° Southeast 242 278 5,000 -540 Descending New York Center
10:46PM 42.0022 -75.9450 82° East 218 251 4,000 -540 Descending New York Center
10:47PM 42.0114 -75.8733 80° East 205 236 4,000  Level New York Center
10:48PM 42.0569 -75.8794 354° North 141 162 4,000  Level New York Center
10:49PM 42.0981 -75.8939 345° North 141 162 4,000 -420 Level New York Center
10:50PM 42.1344 -75.9192 333° Northwest 141 162 3,200 -780 Descending New York Center
10:51PM 42.1644 -75.9467 326° Northwest 141 162 2,500 -720 Descending New York Center